Time;durP1;ratioP1;P1;durP2;ratioP2;P2;SDS_P1;SDS_P2;PMS_P1;PMS_P2;Temp;Humidity;BMP_temperature;BMP_pressure;BME280_temperature;BME280_humidity;BME280_pressure;Samples;Min_cycle;Max_cycle;Signal;HPM_P1;HPM_P2
2023/01/12 00:01:43;;;;;;;9.90;1.85;;;10.90;79.30;;;;;;5115365;28;20107;-70
2023/01/12 00:04:12;;;;;;;6.45;1.30;;;11.00;79.30;;;;;;5086371;28;20160;-70
2023/01/12 00:06:38;;;;;;;3.47;1.13;;;10.90;80.00;;;;;;5096581;28;20065;-70
2023/01/12 00:09:07;;;;;;;4.40;1.25;;;10.90;79.30;;;;;;5109495;28;20499;-70
2023/01/12 00:11:34;;;;;;;4.68;1.48;;;11.00;79.40;;;;;;5108884;28;20577;-70
2023/01/12 00:14:00;;;;;;;5.65;1.40;;;10.90;79.40;;;;;;5086795;28;20360;-70
2023/01/12 00:16:33;;;;;;;6.75;1.30;;;10.90;79.40;;;;;;5116379;28;20027;-70
2023/01/12 00:19:10;;;;;;;5.32;1.17;;;11.00;79.50;;;;;;5112904;28;20031;-70
2023/01/12 00:22:12;;;;;;;5.03;1.67;;;11.00;79.50;;;;;;5114036;28;20024;-70
2023/01/12 00:24:43;;;;;;;4.57;1.27;;;10.90;79.50;;;;;;5107028;28;20488;-70
2023/01/12 00:27:13;;;;;;;5.97;1.35;;;10.90;79.50;;;;;;5115702;28;20046;-70
2023/01/12 00:29:39;;;;;;;5.22;1.33;;;10.90;79.70;;;;;;5093955;28;20024;-70
2023/01/12 00:32:06;;;;;;;5.00;1.98;;;10.90;79.70;;;;;;5106170;28;20028;-70
2023/01/12 00:34:32;;;;;;;7.40;2.17;;;10.90;79.90;;;;;;5106973;28;20023;-70
2023/01/12 00:36:59;;;;;;;4.78;1.55;;;10.90;79.90;;;;;;5115034;28;20447;-70
2023/01/12 00:39:25;;;;;;;9.45;1.80;;;10.90;79.90;;;;;;5103764;28;20102;-70
2023/01/12 00:47:19;;;;;;;7.93;2.40;;;10.90;80.00;;;;;;5104693;28;20023;-71
2023/01/12 00:49:45;;;;;;;10.90;2.13;;;10.90;80.00;;;;;;5113130;28;20041;-71
2023/01/12 00:52:15;;;;;;;8.15;2.00;;;10.90;80.10;;;;;;5113183;28;20110;-70
2023/01/12 00:54:40;;;;;;;7.55;1.92;;;10.90;80.20;;;;;;5106956;28;20359;-70
2023/01/12 00:57:08;;;;;;;9.80;2.25;;;10.90;80.20;;;;;;5095751;28;20026;-71
2023/01/12 00:59:34;;;;;;;11.45;2.17;;;10.90;80.40;;;;;;5114110;28;20065;-72
2023/01/12 01:02:00;;;;;;;5.35;2.17;;;11.00;80.50;;;;;;5112366;28;20028;-71
2023/01/12 01:04:26;;;;;;;6.68;2.20;;;10.90;80.50;;;;;;5112812;28;20019;-71
2023/01/12 01:06:52;;;;;;;10.48;2.30;;;10.90;80.50;;;;;;5111962;28;20031;-69
2023/01/12 01:09:18;;;;;;;8.50;2.80;;;10.90;80.70;;;;;;5112667;28;20103;-69
2023/01/12 01:11:43;;;;;;;9.88;2.83;;;10.90;80.80;;;;;;5112767;28;20047;-71
2023/01/12 01:14:09;;;;;;;10.18;2.88;;;10.90;80.90;;;;;;5113039;28;20073;-71
2023/01/12 01:16:35;;;;;;;11.95;4.28;;;11.00;81.00;;;;;;5125715;27;20059;-69
2023/01/12 01:19:04;;;;;;;10.10;2.78;;;10.90;80.90;;;;;;5102125;28;20035;-69
2023/01/12 01:21:32;;;;;;;8.90;2.90;;;11.00;81.10;;;;;;5110023;28;20051;-69
2023/01/12 01:23:58;;;;;;;9.65;2.60;;;11.00;81.10;;;;;;5111262;28;20047;-70
2023/01/12 01:26:24;;;;;;;12.82;3.50;;;11.00;81.20;;;;;;5113743;28;20104;-70
2023/01/12 01:28:50;;;;;;;7.55;2.97;;;11.00;81.30;;;;;;5110674;28;20028;-70
2023/01/12 01:31:21;;;;;;;11.85;3.40;;;11.00;81.30;;;;;;5116695;28;20050;-70
2023/01/12 01:33:48;;;;;;;12.25;3.08;;;11.00;81.40;;;;;;5116983;28;20360;-69
2023/01/12 01:36:15;;;;;;;9.05;3.05;;;11.00;81.50;;;;;;5116243;28;20131;-70
2023/01/12 01:38:43;;;;;;;11.82;3.35;;;11.00;81.50;;;;;;5117866;28;20031;-70
2023/01/12 01:41:16;;;;;;;10.80;3.60;;;11.00;81.60;;;;;;5111311;28;20359;-70
2023/01/12 01:43:54;;;;;;;9.75;2.55;;;11.00;81.60;;;;;;5112453;28;20328;-70
2023/01/12 01:46:36;;;;;;;9.77;3.10;;;11.00;81.60;;;;;;5108685;28;20174;-70
2023/01/12 01:49:17;;;;;;;10.98;2.53;;;11.00;81.70;;;;;;5118499;28;20028;-70
2023/01/12 01:51:44;;;;;;;14.48;3.35;;;11.00;81.70;;;;;;5116347;28;20024;-70
2023/01/12 01:54:11;;;;;;;10.38;2.90;;;11.00;81.80;;;;;;5116373;28;20417;-69
2023/01/12 01:56:36;;;;;;;9.27;2.92;;;11.00;81.80;;;;;;5117052;28;20027;-70
2023/01/12 01:59:12;;;;;;;8.77;2.65;;;11.10;82.00;;;;;;5112253;28;20365;-70
2023/01/12 02:01:38;;;;;;;8.65;2.50;;;11.00;82.00;;;;;;5112353;28;20119;-69
2023/01/12 02:04:05;;;;;;;9.63;2.95;;;11.00;82.00;;;;;;5114976;28;20448;-70
2023/01/12 02:06:32;;;;;;;8.30;2.47;;;11.00;82.10;;;;;;5115406;28;20076;-70
2023/01/12 02:09:09;;;;;;;7.28;2.65;;;11.00;82.10;;;;;;5116243;28;20390;-69
2023/01/12 02:17:38;;;;;;;6.65;1.83;;;11.00;82.30;;;;;;5114906;28;20031;-69
2023/01/12 02:20:33;;;;;;;6.90;2.20;;;11.00;82.40;;;;;;5117735;28;20049;-69
2023/01/12 02:23:21;;;;;;;8.15;2.38;;;11.00;82.40;;;;;;5113411;28;20031;-69
2023/01/12 02:26:08;;;;;;;9.05;3.13;;;11.00;82.50;;;;;;5115432;28;20093;-70
2023/01/12 02:29:22;;;;;;;11.68;2.35;;;11.00;82.50;;;;;;5111600;28;20042;-70
2023/01/12 02:31:57;;;;;;;7.25;1.98;;;11.00;82.50;;;;;;5114066;27;20445;-69
2023/01/12 02:34:28;;;;;;;8.45;1.75;;;11.00;82.60;;;;;;5116657;28;20037;-69
2023/01/12 02:37:15;;;;;;;10.85;2.63;;;11.00;82.60;;;;;;5111674;28;20091;-69
2023/01/12 02:39:58;;;;;;;6.90;1.70;;;11.00;82.70;;;;;;5100607;28;20035;-69
2023/01/12 02:43:05;;;;;;;9.60;1.90;;;10.90;82.80;;;;;;5103866;28;20059;-70
2023/01/12 02:45:56;;;;;;;6.20;1.55;;;11.00;82.90;;;;;;5085368;28;20040;-70
2023/01/12 02:48:29;;;;;;;9.27;2.05;;;11.00;82.90;;;;;;5102619;28;20352;-69
2023/01/12 02:54:38;;;;;;;6.90;1.58;;;11.00;83.00;;;;;;5116722;28;20111;-70
2023/01/12 02:57:07;;;;;;;6.63;1.92;;;10.90;82.90;;;;;;5115364;28;20470;-70
2023/01/12 02:59:37;;;;;;;4.28;1.45;;;10.90;83.00;;;;;;5116098;27;20026;-70
2023/01/12 03:02:15;;;;;;;8.80;1.70;;;11.00;83.10;;;;;;5115299;28;20051;-70
2023/01/12 03:04:40;;;;;;;6.20;2.13;;;11.00;83.10;;;;;;5110989;28;20023;-69
2023/01/12 03:07:33;;;;;;;4.93;1.50;;;11.00;83.10;;;;;;5114558;28;20224;-70
2023/01/12 03:10:08;;;;;;;6.30;1.70;;;11.00;83.10;;;;;;5112995;27;20028;-69
2023/01/12 03:12:36;;;;;;;6.75;1.60;;;11.00;83.10;;;;;;5116521;28;20070;-70
2023/01/12 03:15:07;;;;;;;8.73;2.65;;;11.00;83.10;;;;;;5129207;27;20024;-70
2023/01/12 03:17:44;;;;;;;7.05;1.88;;;11.00;83.20;;;;;;5115685;28;20036;-70
2023/01/12 03:20:23;;;;;;;6.50;2.10;;;11.00;83.20;;;;;;5095126;28;20020;-70
2023/01/12 03:22:55;;;;;;;6.50;1.70;;;10.90;83.20;;;;;;5125962;27;20041;-69
2023/01/12 03:25:24;;;;;;;12.32;2.45;;;10.90;83.30;;;;;;5112088;27;20058;-70
2023/01/12 03:27:54;;;;;;;9.95;2.67;;;10.90;83.30;;;;;;5124759;27;20027;-69
2023/01/12 03:30:30;;;;;;;7.85;2.42;;;10.90;83.40;;;;;;5115100;28;20118;-69
2023/01/12 03:32:56;;;;;;;6.43;2.10;;;10.90;83.40;;;;;;5114174;28;20110;-70
2023/01/12 03:35:26;;;;;;;8.70;1.95;;;10.90;83.40;;;;;;5114969;28;20047;-69
2023/01/12 03:37:56;;;;;;;9.38;2.38;;;10.90;83.40;;;;;;5094955;28;20042;-69
2023/01/12 03:40:32;;;;;;;9.50;2.20;;;10.90;83.40;;;;;;5110759;28;20038;-70
2023/01/12 03:43:07;;;;;;;12.23;3.05;;;11.00;83.50;;;;;;5097439;28;20027;-70
2023/01/12 03:45:40;;;;;;;10.07;2.75;;;11.00;83.50;;;;;;5114868;28;20467;-71
2023/01/12 03:48:51;;;;;;;10.65;2.20;;;11.00;83.40;;;;;;5115792;28;20059;-70
2023/01/12 03:51:26;;;;;;;8.00;2.00;;;11.00;83.40;;;;;;5113156;28;20320;-70
2023/01/12 03:53:56;;;;;;;7.47;1.77;;;11.00;83.40;;;;;;5113989;28;20059;-69
2023/01/12 03:56:25;;;;;;;9.02;2.22;;;10.90;83.40;;;;;;5114961;28;20108;-69
2023/01/12 03:58:51;;;;;;;10.98;3.08;;;10.90;83.40;;;;;;5116038;28;20080;-69
2023/01/12 04:01:17;;;;;;;7.40;1.77;;;11.00;83.50;;;;;;5114319;28;20440;-69
2023/01/12 04:03:44;;;;;;;6.57;2.05;;;11.00;83.50;;;;;;5109598;28;20024;-69
2023/01/12 04:06:10;;;;;;;11.25;2.17;;;10.90;83.50;;;;;;5112199;28;20127;-69
2023/01/12 04:08:36;;;;;;;8.18;2.28;;;10.90;83.50;;;;;;5115541;28;20035;-69
2023/01/12 04:13:46;;;;;;;6.38;2.05;;;10.90;83.70;;;;;;5103894;28;20040;-69
2023/01/12 04:16:11;;;;;;;8.55;1.80;;;11.00;83.70;;;;;;5094491;28;20034;-70
2023/01/12 04:18:37;;;;;;;8.35;1.67;;;11.00;83.70;;;;;;5115680;28;20440;-70
2023/01/12 04:21:03;;;;;;;8.85;1.63;;;10.90;83.60;;;;;;5095362;28;20455;-70
2023/01/12 04:23:29;;;;;;;5.05;1.60;;;10.90;83.70;;;;;;5114568;28;20027;-70
2023/01/12 04:25:54;;;;;;;7.32;1.63;;;10.90;83.70;;;;;;5113275;28;20491;-70
2023/01/12 04:28:20;;;;;;;5.25;1.65;;;10.90;83.80;;;;;;5102018;28;20024;-69
2023/01/12 04:30:46;;;;;;;5.97;1.52;;;10.90;83.80;;;;;;5114030;28;20378;-70
2023/01/12 04:33:12;;;;;;;7.78;1.77;;;10.90;83.80;;;;;;5116137;28;20103;-69
2023/01/12 04:35:38;;;;;;;5.45;1.40;;;10.90;83.80;;;;;;5114086;28;20127;-69
2023/01/12 04:38:07;;;;;;;7.43;1.65;;;10.90;83.80;;;;;;5114377;28;20409;-70
2023/01/12 04:40:33;;;;;;;3.72;1.50;;;10.90;83.70;;;;;;5101870;28;20027;-69
2023/01/12 04:43:09;;;;;;;6.70;1.38;;;10.80;83.60;;;;;;5114453;28;20333;-70
2023/01/12 04:45:38;;;;;;;6.50;1.88;;;10.90;83.60;;;;;;5105868;28;20028;-70
2023/01/12 04:48:09;;;;;;;6.60;1.85;;;10.80;83.70;;;;;;5114353;28;20483;-69
2023/01/12 04:50:37;;;;;;;6.18;1.77;;;10.80;83.70;;;;;;5102119;28;20039;-69
2023/01/12 04:53:04;;;;;;;5.57;1.85;;;10.80;83.80;;;;;;5104872;28;20413;-70
2023/01/12 04:55:30;;;;;;;6.68;1.60;;;10.80;83.80;;;;;;5107472;28;20066;-70
2023/01/12 04:57:56;;;;;;;7.82;1.70;;;10.80;83.80;;;;;;5108482;28;20059;-69
2023/01/12 05:00:22;;;;;;;8.93;1.70;;;10.70;83.90;;;;;;5112366;28;20349;-69
2023/01/12 05:02:49;;;;;;;6.18;1.95;;;10.80;83.90;;;;;;5108607;28;20046;-70
2023/01/12 05:05:15;;;;;;;8.88;2.08;;;10.80;83.90;;;;;;5112832;28;20085;-69
2023/01/12 05:10:21;;;;;;;5.40;1.70;;;10.80;84.00;;;;;;5105521;28;20115;-69
2023/01/12 05:10:28;;;;;;;6.13;1.95;;;10.80;84.00;;;;;;5129106;28;20526;-70
2023/01/12 05:12:55;;;;;;;8.52;1.90;;;10.80;83.90;;;;;;5102120;28;20020;-70
2023/01/12 05:15:21;;;;;;;6.28;1.90;;;10.70;83.90;;;;;;5113534;28;20024;-69
2023/01/12 05:17:47;;;;;;;8.48;2.30;;;10.70;83.90;;;;;;5114469;28;20023;-70
2023/01/12 05:20:13;;;;;;;8.13;1.92;;;10.70;84.00;;;;;;5111818;28;20062;-70
2023/01/12 05:22:39;;;;;;;5.38;1.85;;;10.70;84.60;;;;;;5106634;28;20154;-70
2023/01/12 05:25:05;;;;;;;6.38;1.60;;;10.80;84.10;;;;;;5113024;28;20146;-69
2023/01/12 05:27:31;;;;;;;5.13;1.90;;;10.80;84.10;;;;;;5095478;28;20032;-70
2023/01/12 05:29:58;;;;;;;7.57;1.45;;;10.80;84.70;;;;;;5107164;28;20038;-70
2023/01/12 05:32:25;;;;;;;3.85;1.30;;;10.90;84.00;;;;;;5106558;28;20024;-70
2023/01/12 05:34:50;;;;;;;6.40;1.70;;;10.90;84.00;;;;;;5114290;28;20505;-70
2023/01/12 05:37:16;;;;;;;6.47;1.52;;;10.90;84.00;;;;;;5101437;28;20024;-70
2023/01/12 05:39:42;;;;;;;3.85;1.25;;;10.90;84.10;;;;;;5107768;28;20436;-69
2023/01/12 05:44:52;;;;;;;5.53;1.05;;;10.90;84.00;;;;;;5113807;28;20031;-70
2023/01/12 05:47:17;;;;;;;4.82;1.10;;;10.90;84.00;;;;;;5091852;28;20349;-70
2023/01/12 05:49:43;;;;;;;5.07;1.30;;;10.90;84.00;;;;;;5113562;28;20031;-70
2023/01/12 05:52:09;;;;;;;5.28;1.50;;;10.90;84.00;;;;;;5111338;28;20028;-69
2023/01/12 05:54:35;;;;;;;5.88;1.60;;;10.90;84.10;;;;;;5113119;28;20062;-69
2023/01/12 05:57:00;;;;;;;4.95;1.15;;;10.90;84.10;;;;;;5108333;28;20042;-69
2023/01/12 05:59:26;;;;;;;6.78;1.45;;;10.90;84.20;;;;;;5107792;28;20054;-69
2023/01/12 06:01:52;;;;;;;6.07;1.20;;;10.90;84.30;;;;;;5110807;28;20023;-69
2023/01/12 06:04:18;;;;;;;6.32;1.15;;;10.90;84.30;;;;;;5124052;28;20088;-69
2023/01/12 06:06:45;;;;;;;5.70;1.80;;;10.90;84.40;;;;;;5108856;28;20028;-70
2023/01/12 06:09:11;;;;;;;5.25;1.38;;;10.90;84.40;;;;;;5113078;28;20032;-69
2023/01/12 06:14:21;;;;;;;4.90;1.63;;;10.90;84.60;;;;;;5117834;28;20032;-69
2023/01/12 06:16:46;;;;;;;4.90;1.02;;;10.80;84.50;;;;;;5112457;28;20167;-68
2023/01/12 06:19:12;;;;;;;7.88;1.58;;;10.80;84.60;;;;;;5127255;27;20080;-68
2023/01/12 06:21:39;;;;;;;4.95;1.08;;;10.80;84.60;;;;;;5116725;28;20023;-68
2023/01/12 06:24:05;;;;;;;4.72;1.10;;;10.90;84.70;;;;;;5116282;28;20055;-68
2023/01/12 06:26:31;;;;;;;4.50;0.90;;;10.80;84.60;;;;;;5133941;27;20034;-68
2023/01/12 06:28:56;;;;;;;4.88;1.30;;;10.90;85.40;;;;;;5104623;28;20408;-68
2023/01/12 06:31:22;;;;;;;5.57;1.23;;;10.90;84.80;;;;;;5099511;28;20024;-67
2023/01/12 06:33:48;;;;;;;3.55;1.10;;;10.90;84.80;;;;;;5117167;28;20456;-68
2023/01/12 06:36:14;;;;;;;3.80;1.10;;;10.90;84.80;;;;;;5116576;28;20050;-68
2023/01/12 06:38:40;;;;;;;4.95;1.10;;;10.90;84.70;;;;;;5116487;28;20012;-68
2023/01/12 06:42:27;;;;;;;3.90;1.13;;;10.90;85.40;;;;;;5116396;28;20036;-68
2023/01/12 06:43:58;;;;;;;4.03;1.20;;;10.90;84.80;;;;;;5116552;28;20032;-68
2023/01/12 06:46:25;;;;;;;5.32;1.15;;;10.90;85.50;;;;;;5117346;28;20036;-68
2023/01/12 06:48:51;;;;;;;5.05;1.33;;;10.90;84.80;;;;;;5115825;28;20023;-68
2023/01/12 06:51:18;;;;;;;3.25;1.00;;;10.90;84.80;;;;;;5117767;28;20053;-68
2023/01/12 06:53:43;;;;;;;4.03;1.10;;;10.90;84.90;;;;;;5117965;28;20019;-68
2023/01/12 06:56:09;;;;;;;4.70;1.20;;;10.90;85.00;;;;;;5116266;28;20152;-68
2023/01/12 06:58:35;;;;;;;3.40;1.10;;;10.90;85.00;;;;;;5115373;28;20026;-68
2023/01/12 07:01:02;;;;;;;3.15;1.02;;;10.90;85.10;;;;;;5111397;28;20050;-68
2023/01/12 07:03:27;;;;;;;3.67;1.10;;;10.90;85.10;;;;;;5096919;28;20471;-68
2023/01/12 07:05:56;;;;;;;4.43;1.27;;;11.00;85.10;;;;;;5097879;28;20032;-68
2023/01/12 07:08:22;;;;;;;2.40;1.00;;;10.90;85.10;;;;;;5104185;28;20084;-68
2023/01/12 07:10:48;;;;;;;2.33;0.98;;;11.00;85.30;;;;;;5114638;28;20472;-68
2023/01/12 07:13:13;;;;;;;5.35;1.65;;;11.00;85.20;;;;;;5105594;28;20439;-70
2023/01/12 07:15:39;;;;;;;3.80;1.13;;;11.10;85.30;;;;;;5113942;28;20034;-70
2023/01/12 07:18:06;;;;;;;1.80;1.13;;;11.00;85.20;;;;;;5112571;28;20127;-70
2023/01/12 07:20:32;;;;;;;5.20;1.50;;;11.10;85.30;;;;;;5100838;28;20074;-69
2023/01/12 07:22:58;;;;;;;4.43;1.10;;;11.10;85.20;;;;;;5122699;27;20463;-71
2023/01/12 07:25:24;;;;;;;2.53;0.98;;;11.20;85.20;;;;;;5097360;28;20044;-69
2023/01/12 07:27:57;;;;;;;3.55;1.38;;;11.20;85.20;;;;;;5103567;28;20473;-69
2023/01/12 07:30:24;;;;;;;2.42;1.10;;;11.20;85.30;;;;;;5112978;28;20026;-69
2023/01/12 07:32:51;;;;;;;4.07;1.23;;;11.20;85.30;;;;;;5113028;28;20049;-69
2023/01/12 07:35:17;;;;;;;5.68;1.70;;;11.20;85.40;;;;;;5102274;28;20022;-69
2023/01/12 07:37:47;;;;;;;5.10;1.40;;;11.20;85.40;;;;;;5106539;28;20024;-69
2023/01/12 07:40:13;;;;;;;4.80;1.42;;;11.20;85.40;;;;;;5112358;28;20405;-69
2023/01/12 07:42:39;;;;;;;4.75;1.63;;;11.20;85.40;;;;;;5113228;28;20569;-70
2023/01/12 07:45:05;;;;;;;3.22;1.20;;;11.20;85.40;;;;;;5108085;28;20081;-70
2023/01/12 07:47:31;;;;;;;4.20;1.48;;;11.20;85.50;;;;;;5110458;28;20356;-69
2023/01/12 07:49:57;;;;;;;1.48;0.98;;;11.30;85.50;;;;;;5116064;28;20028;-69
2023/01/12 07:52:23;;;;;;;4.22;1.30;;;11.30;85.50;;;;;;5113308;28;20036;-69
2023/01/12 07:54:48;;;;;;;5.47;1.45;;;11.30;86.10;;;;;;5089398;28;20027;-70
2023/01/12 07:57:14;;;;;;;2.45;1.25;;;11.40;85.50;;;;;;5114561;28;20344;-68
2023/01/12 07:59:40;;;;;;;3.83;1.30;;;11.40;85.40;;;;;;5088654;28;20030;-66
2023/01/12 08:02:09;;;;;;;2.95;1.13;;;11.40;85.30;;;;;;5113554;28;20031;-70
2023/01/12 08:04:35;;;;;;;3.13;1.30;;;11.40;85.30;;;;;;5097720;28;20120;-67
2023/01/12 08:07:01;;;;;;;3.15;1.20;;;11.40;85.40;;;;;;5114761;27;20059;-67
2023/01/12 08:09:26;;;;;;;2.28;1.10;;;11.40;85.40;;;;;;5103375;28;20107;-66
2023/01/12 08:11:52;;;;;;;1.67;1.00;;;11.40;85.50;;;;;;5099451;28;20027;-67
2023/01/12 08:14:26;;;;;;;2.63;1.23;;;11.40;85.50;;;;;;5111431;28;20444;-67
2023/01/12 08:16:54;;;;;;;2.60;1.20;;;11.50;85.60;;;;;;5114167;28;20031;-67
2023/01/12 08:19:24;;;;;;;3.35;1.35;;;11.40;85.60;;;;;;5107175;28;20448;-66
2023/01/12 08:21:57;;;;;;;4.88;1.45;;;11.40;85.60;;;;;;5088908;28;20032;-66
2023/01/12 08:24:29;;;;;;;3.78;1.40;;;11.40;85.70;;;;;;5113383;28;20059;-67
2023/01/12 08:26:59;;;;;;;2.42;1.00;;;11.40;85.70;;;;;;5114778;28;20043;-67
2023/01/12 08:29:42;;;;;;;4.07;1.40;;;11.40;85.80;;;;;;5111857;28;20236;-66
2023/01/12 08:32:09;;;;;;;2.80;1.30;;;11.40;85.80;;;;;;5112156;28;20109;-67
2023/01/12 08:34:38;;;;;;;2.60;1.27;;;11.40;85.90;;;;;;5108037;28;20034;-67
2023/01/12 08:37:08;;;;;;;3.08;1.42;;;11.40;85.90;;;;;;5114838;27;20016;-66
2023/01/12 08:39:35;;;;;;;4.65;1.50;;;11.40;85.90;;;;;;5112048;28;20023;-66
2023/01/12 08:42:02;;;;;;;3.00;1.55;;;11.40;85.90;;;;;;5112307;28;20084;-67
2023/01/12 08:44:33;;;;;;;3.38;1.52;;;11.40;86.00;;;;;;5107489;28;20364;-67
2023/01/12 08:46:59;;;;;;;3.50;1.55;;;11.40;86.10;;;;;;5088565;28;20115;-67
2023/01/12 08:49:26;;;;;;;2.72;1.35;;;11.40;86.10;;;;;;5101383;28;20103;-67
2023/01/12 08:51:52;;;;;;;3.72;1.80;;;11.40;86.20;;;;;;5107201;28;20035;-68
2023/01/12 08:54:19;;;;;;;3.92;1.60;;;11.40;86.20;;;;;;5106232;28;20048;-68
2023/01/12 08:56:45;;;;;;;4.70;1.75;;;11.50;86.30;;;;;;5099027;28;20027;-68
2023/01/12 08:59:11;;;;;;;3.30;1.60;;;11.40;86.20;;;;;;5110681;28;20161;-68
2023/01/12 09:01:38;;;;;;;2.80;1.40;;;11.50;86.30;;;;;;5110430;28;20024;-67
2023/01/12 09:04:04;;;;;;;2.33;1.30;;;11.50;86.40;;;;;;5103565;28;20364;-66
2023/01/12 09:06:41;;;;;;;3.53;1.48;;;11.50;86.40;;;;;;5114441;28;20024;-67
2023/01/12 09:09:14;;;;;;;3.05;1.52;;;11.50;86.40;;;;;;5109047;28;20031;-67
2023/01/12 09:11:41;;;;;;;4.03;1.45;;;11.50;86.40;;;;;;5110973;28;20055;-67
2023/01/12 09:14:08;;;;;;;3.67;1.30;;;11.50;86.50;;;;;;5113299;28;20016;-67
2023/01/12 09:16:34;;;;;;;2.10;1.45;;;11.50;86.50;;;;;;5114024;28;20043;-67
2023/01/12 09:19:00;;;;;;;2.90;1.40;;;11.60;86.50;;;;;;5114186;28;20023;-67
2023/01/12 09:21:27;;;;;;;2.80;1.60;;;11.60;86.60;;;;;;5113692;28;20038;-67
2023/01/12 09:23:53;;;;;;;3.28;1.60;;;11.60;86.60;;;;;;5111766;28;20096;-67
2023/01/12 09:26:21;;;;;;;4.32;1.50;;;11.50;86.60;;;;;;5113774;28;20091;-68
2023/01/12 09:28:47;;;;;;;3.53;1.80;;;11.60;86.70;;;;;;5113743;28;20047;-67
2023/01/12 09:31:16;;;;;;;3.85;1.63;;;11.60;86.80;;;;;;5114185;28;20085;-67
2023/01/12 09:33:42;;;;;;;3.92;1.70;;;11.60;86.90;;;;;;5114634;28;20038;-67
2023/01/12 09:36:14;;;;;;;3.63;1.80;;;11.60;86.90;;;;;;5095050;28;20478;-67
2023/01/12 09:38:42;;;;;;;3.22;1.60;;;11.60;86.90;;;;;;5113694;28;20069;-67
2023/01/12 09:41:15;;;;;;;4.13;1.77;;;11.60;87.00;;;;;;5114694;28;20363;-68
2023/01/12 09:49:23;;;;;;;3.50;1.60;;;11.60;87.00;;;;;;5115177;28;20355;-67
2023/01/12 09:51:58;;;;;;;2.83;1.60;;;11.60;86.90;;;;;;5117247;28;20030;-68
2023/01/12 09:54:24;;;;;;;3.30;1.65;;;11.60;87.00;;;;;;5117332;28;20034;-68
2023/01/12 09:57:00;;;;;;;3.55;1.60;;;11.60;87.00;;;;;;5117130;28;20027;-68
2023/01/12 09:59:47;;;;;;;3.85;1.60;;;11.70;87.10;;;;;;5104810;28;20070;-68
2023/01/12 10:02:13;;;;;;;3.90;1.60;;;11.70;87.10;;;;;;5116447;28;20035;-67
2023/01/12 10:04:39;;;;;;;4.35;1.67;;;11.70;87.10;;;;;;5116968;28;20028;-67
2023/01/12 10:07:12;;;;;;;3.08;1.50;;;11.70;87.20;;;;;;5117212;28;20039;-68
2023/01/12 10:09:38;;;;;;;2.92;1.63;;;11.70;87.30;;;;;;5116582;28;20035;-67
2023/01/12 10:12:32;;;;;;;2.92;1.48;;;11.70;87.30;;;;;;5112444;28;20024;-68
2023/01/12 10:15:18;;;;;;;2.75;1.40;;;11.80;87.40;;;;;;5118069;28;20036;-68
2023/01/12 10:17:51;;;;;;;2.38;1.27;;;11.70;87.40;;;;;;5117046;28;20023;-68
2023/01/12 10:20:25;;;;;;;3.17;1.35;;;11.80;87.50;;;;;;5107693;28;20165;-68
2023/01/12 10:22:58;;;;;;;2.85;1.55;;;11.80;87.60;;;;;;5117541;28;20035;-69
2023/01/12 10:25:46;;;;;;;4.15;1.70;;;11.80;87.60;;;;;;5117488;28;20054;-68
2023/01/12 10:28:28;;;;;;;3.17;1.23;;;11.80;88.20;;;;;;5095976;28;20067;-68
2023/01/12 10:30:56;;;;;;;2.95;1.30;;;11.80;87.60;;;;;;5117238;28;20426;-68
2023/01/12 10:33:28;;;;;;;3.30;1.60;;;11.80;87.50;;;;;;5117328;28;20051;-66
2023/01/12 10:36:18;;;;;;;2.55;1.05;;;11.90;87.60;;;;;;5117603;28;20087;-68
2023/01/12 10:38:56;;;;;;;3.47;1.33;;;11.90;87.60;;;;;;5116211;28;20036;-68
2023/01/12 10:41:25;;;;;;;2.38;1.20;;;11.90;87.60;;;;;;5112547;28;20028;-69
2023/01/12 10:43:53;;;;;;;2.40;1.30;;;11.90;87.60;;;;;;5108001;28;20024;-68
2023/01/12 10:46:22;;;;;;;2.28;1.20;;;11.90;87.70;;;;;;5117674;28;20039;-68
2023/01/12 10:48:53;;;;;;;1.30;0.90;;;11.90;87.80;;;;;;5115995;28;20321;-68
2023/01/12 10:51:25;;;;;;;2.17;1.10;;;11.90;87.80;;;;;;5116160;28;20047;-66
2023/01/12 10:54:09;;;;;;;1.98;1.08;;;11.90;87.90;;;;;;5116585;28;20031;-68
2023/01/12 10:56:41;;;;;;;2.65;1.00;;;11.90;87.90;;;;;;5116579;28;20036;-67
2023/01/12 10:59:12;;;;;;;3.08;1.20;;;11.90;87.90;;;;;;5117277;28;20079;-67
2023/01/12 11:01:50;;;;;;;2.55;1.20;;;11.90;87.90;;;;;;5132296;27;20035;-68
2023/01/12 11:04:22;;;;;;;1.23;0.90;;;11.90;87.90;;;;;;5113215;28;20123;-67
2023/01/12 11:07:27;;;;;;;1.42;1.00;;;12.00;87.90;;;;;;5113446;28;20030;-68
2023/01/12 11:09:57;;;;;;;3.47;1.42;;;12.00;87.80;;;;;;5114596;27;20444;-67
2023/01/12 11:12:39;;;;;;;1.65;0.90;;;12.00;87.90;;;;;;5100034;28;20028;-68
2023/01/12 11:15:11;;;;;;;2.45;1.30;;;12.00;87.90;;;;;;5101309;28;20024;-68
2023/01/12 11:18:34;;;;;;;2.30;1.33;;;12.00;87.90;;;;;;5113709;28;20019;-67
2023/01/12 11:21:09;;;;;;;2.67;1.23;;;12.10;87.90;;;;;;5067733;28;20045;-68
2023/01/12 11:23:53;;;;;;;1.58;0.90;;;12.10;87.90;;;;;;5102920;28;20035;-68
2023/01/12 11:27:00;;;;;;;1.23;0.93;;;12.10;87.90;;;;;;5110792;28;20044;-69
2023/01/12 11:29:57;;;;;;;2.38;0.90;;;12.10;87.90;;;;;;5102293;28;20040;-68
2023/01/12 11:32:42;;;;;;;2.03;1.08;;;12.10;87.90;;;;;;5101738;27;20039;-68
2023/01/12 11:35:27;;;;;;;1.55;1.10;;;12.10;87.90;;;;;;5096868;28;20039;-68
2023/01/12 11:37:56;;;;;;;3.58;1.23;;;12.10;88.00;;;;;;5104686;27;20032;-69
2023/01/12 11:40:31;;;;;;;2.08;1.13;;;12.10;88.00;;;;;;5105440;27;20016;-73
2023/01/12 11:46:23;;;;;;;1.42;1.02;;;12.10;88.10;;;;;;5099061;27;20445;-68
2023/01/12 11:48:55;;;;;;;3.10;1.40;;;12.10;88.10;;;;;;5101163;28;20085;-70
2023/01/12 11:51:20;;;;;;;3.53;1.60;;;12.10;88.10;;;;;;5112591;27;20085;-69
2023/01/12 11:53:46;;;;;;;2.40;1.40;;;12.10;88.10;;;;;;5084999;28;20024;-69
2023/01/12 11:56:27;;;;;;;1.98;1.20;;;12.10;88.20;;;;;;5105355;27;20106;-69
2023/01/12 11:59:04;;;;;;;2.88;1.38;;;12.10;88.30;;;;;;5095873;28;20039;-69
2023/01/12 12:01:51;;;;;;;3.08;1.52;;;12.10;88.30;;;;;;5101202;28;20478;-69
2023/01/12 12:04:21;;;;;;;3.40;1.20;;;12.10;88.30;;;;;;5098380;28;20047;-69
2023/01/12 12:07:24;;;;;;;2.72;1.55;;;12.10;88.30;;;;;;5097152;28;20074;-68
2023/01/12 12:10:08;;;;;;;1.92;1.30;;;12.10;88.30;;;;;;5112738;28;20051;-69
2023/01/12 12:12:34;;;;;;;3.00;1.52;;;12.10;88.30;;;;;;5110778;28;20031;-69
2023/01/12 12:15:47;;;;;;;2.88;1.33;;;12.20;88.30;;;;;;5115167;28;20026;-69
2023/01/12 12:18:23;;;;;;;2.08;1.45;;;12.20;88.30;;;;;;5068645;28;20025;-69
2023/01/12 12:21:15;;;;;;;2.45;1.35;;;12.20;88.90;;;;;;5104998;28;20043;-69
2023/01/12 12:24:13;;;;;;;2.65;1.42;;;12.20;88.30;;;;;;5082354;28;20039;-69
2023/01/12 12:26:57;;;;;;;2.83;1.23;;;12.20;88.30;;;;;;5109294;27;20105;-69
2023/01/12 12:30:01;;;;;;;2.88;1.58;;;12.20;88.30;;;;;;5100738;28;20097;-69
2023/01/12 12:32:45;;;;;;;2.05;1.15;;;12.20;88.40;;;;;;5079636;27;20058;-69
2023/01/12 12:35:56;;;;;;;2.97;1.45;;;12.20;89.00;;;;;;5109119;27;20024;-69
2023/01/12 12:38:39;;;;;;;2.78;1.30;;;12.20;88.40;;;;;;5087188;28;20038;-69
2023/01/12 12:47:54;;;;;;;1.58;1.10;;;12.20;88.50;;;;;;5114587;27;20041;-69
2023/01/12 12:50:39;;;;;;;1.40;1.00;;;12.20;88.40;;;;;;5110464;28;20031;-70
2023/01/12 12:53:27;;;;;;;1.88;1.15;;;12.20;88.50;;;;;;5105088;28;20036;-70
2023/01/12 12:55:57;;;;;;;2.47;1.20;;;12.20;88.50;;;;;;5113039;28;20028;-70
2023/01/12 12:58:37;;;;;;;3.67;1.20;;;12.20;88.60;;;;;;5095103;28;20023;-70
2023/01/12 13:01:24;;;;;;;2.97;1.23;;;12.20;88.60;;;;;;5107235;28;20032;-70
2023/01/12 13:03:54;;;;;;;2.47;1.40;;;12.20;88.60;;;;;;5095243;28;20150;-70
2023/01/12 13:06:47;;;;;;;2.30;1.20;;;12.20;88.70;;;;;;5130777;27;20034;-70
2023/01/12 13:09:16;;;;;;;2.55;1.10;;;12.10;88.70;;;;;;5113644;28;20062;-70
2023/01/12 13:11:53;;;;;;;1.83;1.20;;;12.20;88.70;;;;;;5102785;28;20028;-70
2023/01/12 13:14:36;;;;;;;3.55;1.27;;;12.20;88.80;;;;;;5101730;28;20027;-70
2023/01/12 13:17:18;;;;;;;2.17;1.30;;;12.20;88.70;;;;;;5103273;28;20400;-70
2023/01/12 13:20:05;;;;;;;2.38;1.20;;;12.20;88.70;;;;;;5096598;28;20084;-70
2023/01/12 13:22:31;;;;;;;2.75;1.40;;;12.20;88.70;;;;;;5118246;28;20063;-70
2023/01/12 13:25:09;;;;;;;2.53;1.55;;;12.20;88.70;;;;;;5115578;28;20096;-70
2023/01/12 13:27:50;;;;;;;4.25;1.60;;;12.20;88.70;;;;;;5119497;28;20149;-70
2023/01/12 13:30:37;;;;;;;2.77;1.50;;;12.20;88.70;;;;;;5113078;28;20027;-70
2023/01/12 13:33:23;;;;;;;3.17;1.60;;;12.20;88.70;;;;;;5113629;28;20705;-70
2023/01/12 13:35:49;;;;;;;4.10;1.70;;;12.20;88.70;;;;;;5111372;28;20024;-70
2023/01/12 13:38:36;;;;;;;3.40;1.42;;;12.20;88.70;;;;;;5107368;28;20334;-70
2023/01/12 13:41:10;;;;;;;2.75;1.50;;;12.20;88.70;;;;;;5117958;28;20063;-70
2023/01/12 13:43:40;;;;;;;3.63;1.30;;;12.20;88.70;;;;;;5116484;28;20041;-70
2023/01/12 13:46:34;;;;;;;2.45;1.05;;;12.20;88.70;;;;;;5106861;28;20107;-70
2023/01/12 13:49:01;;;;;;;1.63;1.10;;;12.10;88.80;;;;;;5116803;28;20371;-70
2023/01/12 13:51:40;;;;;;;3.28;1.23;;;12.10;88.70;;;;;;5117608;28;20134;-70